Ninoy Aquino International Airport
RPLL : now visible

Airfield :











YOU CAN JOIN US ON...

 
LOGIN :

Register | Disclaimer

   EN    FR    IT 

 









Legend :    VFR   Marginal VFR   IFR   Intensive IFR   Very Intensive IFR
Visi :
Ceiling :
>= 8 km
>= 3000ft
5 to 8 km
1000 to 3000 ft
1500m to 5 km
500 to 1000 ft
800 to 1500m
200 to 500 ft
< 800m
< 200 ft
Symbols :   Thunderstorms  Fog  Heavy snow  Heavy precipitations  Wind > 20 kt






- Airport Elevation : 75 ft
- IATA code : MNL


RPLL - Ninoy Aquino International

CURRENT METAR :
  • 232000Z 09004KT 050V130 9999 SCT025 BKN100 BKN250 26/22 Q1014 NOSIG RMK A2994

EXPIRED METARs :
  • 231900Z 10004KT 040V140 9999 FEW025 SCT250 26/22 Q1014 NOSIG RMK A2994
  • 231800Z 12004KT 090V160 9999 FEW025 26/22 Q1014 NOSIG RMK A2994
  • 231700Z 12004KT 070V170 9999 FEW025 26/23 Q1015 NOSIG RMK A2997
  • 231600Z 11006KT 070V150 9999 FEW025 27/22 Q1015 NOSIG RMK A2997

TAF TAF RPLL
Valid from the 23 at 18:00 until the 25 at 00:00 UTC


231700Z 2318/2424 10006KT 9999 FEW025 TX33/2405Z TN25/2321Z
TEMPO 2318/2324 VRB03KT
TEMPO 2403/2409 12012KT SCT025 BKN090
RPHI FIR / Asia



MET'MAP, your aeronautical weather chart ! - Copyright ORBIFLY December 2007 - Disclaimer

ORBIFLY MET'MAP TEAM :

Programming & Development : Alexandra Zaïnal
Original concept : Baudouin d'Aumeries
Technical & hardware support : Manuel Goepfert
Assistance : Marc-Olivier Méhu




SOURCES & CREDITS :

   NOAA       Earth
Advisory